Time;durP1;ratioP1;P1;durP2;ratioP2;P2;SDS_P1;SDS_P2;PMS_P1;PMS_P2;Temp;Humidity;BMP_temperature;BMP_pressure;BME280_temperature;BME280_humidity;BME280_pressure;Samples;Min_cycle;Max_cycle;Signal;HPM_P1;HPM_P2
2022/08/08 00:01:00;;;;;;;2.23;2.03;;;15.90;54.40;;;16.18;53.48;98390.94;5030696;28;21023;-70
2022/08/08 00:03:46;;;;;;;2.80;2.60;;;15.90;54.60;;;16.19;53.45;98395.31;5030802;28;20492;-72
2022/08/08 00:06:33;;;;;;;3.53;2.37;;;15.90;54.50;;;16.23;53.26;98396.47;5028433;28;20458;-72
2022/08/08 00:09:10;;;;;;;2.33;2.13;;;15.90;54.40;;;16.14;53.41;98401.47;5028210;28;20876;-72
2022/08/08 00:11:42;;;;;;;2.27;2.17;;;15.90;54.30;;;16.28;53.05;98396.56;5023336;28;20465;-71
2022/08/08 00:14:26;;;;;;;1.90;1.80;;;16.10;54.10;;;16.36;53.04;98387.16;5026114;28;20910;-69
2022/08/08 00:17:03;;;;;;;1.87;1.77;;;16.20;54.10;;;16.36;52.48;98396.19;5025982;28;20485;-70
2022/08/08 00:19:42;;;;;;;2.67;1.90;;;16.30;54.00;;;16.39;52.58;98389.41;5024671;28;20551;-71
2022/08/08 00:22:15;;;;;;;2.40;2.20;;;16.30;53.70;;;16.08;52.87;98362.38;5025970;28;20473;-71
2022/08/08 00:24:48;;;;;;;1.90;1.80;;;16.30;53.70;;;16.51;52.05;98392.06;5025762;28;20484;-71
2022/08/08 00:27:19;;;;;;;2.33;2.10;;;16.30;53.70;;;16.44;52.55;98392.22;5045014;28;20485;-71
2022/08/08 00:29:55;;;;;;;1.93;1.83;;;16.30;53.90;;;16.45;52.33;98398.50;5026053;28;20552;-70
2022/08/08 00:32:27;;;;;;;2.17;1.97;;;16.30;53.80;;;16.37;52.20;98395.09;5026631;28;20528;-70
2022/08/08 00:35:21;;;;;;;2.07;1.87;;;16.30;53.70;;;16.52;51.92;98400.00;5025140;28;20536;-70
2022/08/08 00:38:11;;;;;;;3.03;1.80;;;16.30;53.70;;;16.56;52.12;98394.88;5025083;28;20537;-71
2022/08/08 00:41:11;;;;;;;2.10;2.00;;;16.30;53.90;;;16.42;51.99;98395.19;5042488;28;22175;-71
2022/08/08 00:44:47;;;;;;;1.80;1.67;;;16.30;53.60;;;16.43;52.04;98402.28;5022331;28;20458;-70
2022/08/08 00:48:21;;;;;;;1.97;1.60;;;16.40;53.60;;;16.52;52.43;98400.00;5024028;28;20474;-71
2022/08/08 00:51:39;;;;;;;2.10;1.70;;;16.40;53.80;;;16.49;51.87;98400.50;5001037;28;20949;-71
2022/08/08 00:54:41;;;;;;;2.23;1.77;;;16.40;53.80;;;16.47;51.23;98390.91;5027630;28;20478;-70
2022/08/08 00:58:12;;;;;;;1.97;1.67;;;16.40;53.60;;;16.54;51.80;98389.69;5033350;28;20465;-71
2022/08/08 01:00:48;;;;;;;1.60;1.50;;;16.40;53.40;;;16.47;51.46;98386.28;5019589;28;20539;-71
2022/08/08 01:03:48;;;;;;;2.20;2.00;;;16.40;53.40;;;16.52;52.10;98383.63;5023097;28;20462;-71
2022/08/08 01:07:03;;;;;;;2.13;1.93;;;16.30;53.90;;;16.45;51.80;98390.31;5027985;28;20963;-71
2022/08/08 01:10:31;;;;;;;4.40;1.40;;;16.20;54.00;;;16.09;52.13;98350.41;5005246;28;20581;-71
2022/08/08 01:13:34;;;;;;;1.60;1.50;;;16.10;53.90;;;16.17;52.88;98392.00;5022011;28;21318;-71
2022/08/08 01:16:54;;;;;;;1.90;1.80;;;16.00;54.40;;;16.02;52.81;98385.19;5022326;28;20464;-71
2022/08/08 01:20:21;;;;;;;2.47;2.27;;;15.90;54.40;;;15.92;53.26;98379.50;5018761;28;20458;-71
2022/08/08 01:23:35;;;;;;;1.97;1.87;;;15.90;54.30;;;16.02;53.30;98390.63;4960320;28;20527;-71
2022/08/08 01:26:43;;;;;;;1.70;1.60;;;15.90;54.30;;;15.89;52.45;98345.41;4977975;28;20469;-70
2022/08/08 01:29:46;;;;;;;2.37;2.17;;;16.00;54.40;;;16.05;52.88;98395.59;5030302;28;20484;-69
2022/08/08 01:33:13;;;;;;;2.00;1.90;;;15.90;54.30;;;15.94;53.25;98397.28;5026903;28;20473;-71
2022/08/08 01:36:38;;;;;;;1.60;1.50;;;15.90;54.40;;;16.08;54.04;98397.81;5031519;28;20478;-70
2022/08/08 01:39:29;;;;;;;2.47;2.27;;;15.80;54.70;;;15.99;54.11;98391.94;5012702;28;20450;-71
2022/08/08 01:42:08;;;;;;;2.53;2.23;;;15.90;55.10;;;16.13;54.61;98397.91;5027562;28;20477;-71
2022/08/08 01:44:58;;;;;;;3.20;2.53;;;15.90;55.40;;;16.12;53.59;98396.25;5023480;28;20454;-71
2022/08/08 01:47:48;;;;;;;3.43;2.27;;;16.00;55.20;;;16.05;54.25;98394.75;5021010;28;20465;-72
2022/08/08 01:50:32;;;;;;;1.90;1.80;;;15.90;55.40;;;15.81;54.68;98398.34;5019972;28;20457;-71
2022/08/08 01:53:13;;;;;;;2.20;2.00;;;15.80;55.60;;;15.71;55.09;98390.78;5023948;28;20482;-72
2022/08/08 01:55:51;;;;;;;2.00;1.90;;;15.60;55.50;;;15.59;55.76;98387.25;5021004;28;20462;-71
2022/08/08 01:58:39;;;;;;;2.43;2.00;;;15.50;55.80;;;15.58;55.44;98394.59;5054456;28;20526;-71
2022/08/08 02:01:19;;;;;;;2.23;2.03;;;15.40;56.10;;;15.31;55.71;98358.84;5019707;28;20577;-71
2022/08/08 02:04:03;;;;;;;2.30;2.10;;;15.40;56.20;;;15.51;55.66;98391.16;5020847;28;20462;-71
2022/08/08 02:07:03;;;;;;;2.27;2.13;;;15.30;56.50;;;15.41;55.80;98394.50;5022855;28;20462;-71
2022/08/08 02:09:51;;;;;;;2.27;2.07;;;15.30;56.70;;;15.35;56.52;98400.06;5000445;28;20831;-69
2022/08/08 02:12:25;;;;;;;2.50;2.17;;;15.20;56.90;;;15.36;56.33;98393.53;5020473;28;20468;-70
2022/08/08 02:15:03;;;;;;;2.17;1.97;;;15.20;57.00;;;15.27;56.98;98390.34;5020439;28;20481;-69
2022/08/08 02:17:50;;;;;;;2.10;2.00;;;15.10;57.70;;;15.21;56.86;98392.13;5023549;28;20453;-69
2022/08/08 02:20:28;;;;;;;2.20;2.10;;;15.00;57.10;;;15.13;57.06;98390.59;5020596;28;20458;-70
2022/08/08 02:23:07;;;;;;;2.47;2.30;;;15.00;57.40;;;15.06;57.55;98389.03;5026802;28;20462;-70
2022/08/08 02:25:44;;;;;;;2.63;2.03;;;14.90;57.80;;;15.08;57.28;98393.19;5037303;28;20532;-72
2022/08/08 02:28:20;;;;;;;2.43;2.23;;;14.80;57.80;;;14.93;57.34;98390.91;5056078;28;21447;-70
2022/08/08 02:30:59;;;;;;;2.30;2.10;;;14.80;57.80;;;14.98;57.51;98393.78;5027866;28;20773;-71
2022/08/08 02:33:45;;;;;;;1.93;1.83;;;14.80;58.10;;;14.99;58.01;98392.72;5022349;28;20460;-70
2022/08/08 02:36:38;;;;;;;2.53;2.10;;;14.80;58.20;;;15.00;57.64;98386.22;5035022;28;20488;-70
2022/08/08 02:39:26;;;;;;;1.83;1.73;;;14.80;58.40;;;15.00;57.41;98388.94;5037978;28;20459;-71
2022/08/08 02:42:38;;;;;;;2.10;2.00;;;14.80;58.20;;;14.97;57.43;98389.41;5020738;28;20538;-72
2022/08/08 02:45:39;;;;;;;2.70;2.50;;;14.80;58.30;;;14.91;57.83;98384.88;5023952;28;20497;-71
2022/08/08 02:48:42;;;;;;;2.43;2.23;;;14.80;58.50;;;14.80;58.27;98385.72;5021273;28;20975;-72
2022/08/08 02:51:55;;;;;;;2.57;2.17;;;14.80;58.90;;;14.89;58.17;98384.28;5024901;28;20511;-71
2022/08/08 02:55:11;;;;;;;2.03;1.93;;;14.80;58.80;;;14.84;58.31;98389.63;5035609;28;20942;-72
2022/08/08 02:58:31;;;;;;;2.60;2.40;;;14.60;58.90;;;14.88;58.27;98388.09;5015497;28;20460;-71
2022/08/08 03:01:47;;;;;;;2.40;2.20;;;14.60;59.10;;;14.71;58.64;98394.22;5024446;28;22323;-71
2022/08/08 03:05:12;;;;;;;2.73;2.53;;;14.50;59.40;;;14.71;58.68;98394.22;5003865;28;20464;-72
2022/08/08 03:08:19;;;;;;;2.60;2.40;;;14.50;59.70;;;14.58;59.30;98397.09;5020265;28;20469;-71
2022/08/08 03:11:41;;;;;;;2.33;2.20;;;14.50;60.00;;;14.64;59.24;98401.63;5024205;28;20453;-71
2022/08/08 03:14:31;;;;;;;2.30;2.20;;;14.50;60.00;;;14.84;58.20;98397.78;5026851;28;20534;-71
2022/08/08 03:17:05;;;;;;;2.63;2.50;;;14.50;59.80;;;14.67;58.56;98398.44;5047360;28;20461;-71
2022/08/08 03:20:05;;;;;;;2.07;1.70;;;14.40;59.90;;;14.65;59.02;98403.28;5026453;28;20491;-71
2022/08/08 03:22:32;;;;;;;2.47;2.10;;;14.40;60.50;;;14.27;59.58;98377.25;5023794;28;20564;-71
2022/08/08 03:25:05;;;;;;;2.47;2.27;;;14.40;60.50;;;14.40;59.11;98393.38;5024328;28;22498;-71
2022/08/08 03:27:38;;;;;;;2.10;2.00;;;14.40;60.20;;;14.51;58.74;98404.53;5042061;28;20821;-71
2022/08/08 03:30:10;;;;;;;4.40;2.43;;;14.50;60.10;;;14.50;59.18;98408.31;5028558;28;20467;-72
2022/08/08 03:35:28;;;;;;;4.73;2.53;;;14.50;60.70;;;14.38;58.76;98403.66;4989144;28;21003;-70
2022/08/08 03:37:56;;;;;;;3.43;2.50;;;14.40;60.30;;;14.47;59.34;98419.63;5028219;28;20456;-72
2022/08/08 03:40:25;;;;;;;2.27;2.10;;;14.30;60.80;;;14.39;59.77;98418.06;5026930;28;20483;-71
2022/08/08 03:42:52;;;;;;;2.20;2.00;;;14.10;61.30;;;14.18;59.88;98428.38;5043338;28;20471;-71
2022/08/08 03:45:22;;;;;;;2.50;2.30;;;14.00;61.30;;;14.14;60.09;98436.16;5028915;28;20476;-71
2022/08/08 03:47:57;;;;;;;2.90;2.27;;;13.90;61.80;;;14.10;59.94;98432.25;5021205;28;20457;-70
2022/08/08 03:50:26;;;;;;;2.77;2.50;;;13.90;61.90;;;14.18;61.00;98439.25;5035247;28;20519;-71
2022/08/08 03:52:54;;;;;;;2.63;2.43;;;13.90;62.90;;;14.21;60.90;98440.69;5025376;28;20472;-71
2022/08/08 03:55:24;;;;;;;2.47;2.27;;;13.90;63.30;;;14.03;60.55;98431.50;5025929;28;20516;-72
2022/08/08 03:57:54;;;;;;;3.00;2.53;;;13.80;62.80;;;13.88;60.97;98440.88;5035535;28;20457;-71
2022/08/08 04:00:25;;;;;;;3.43;2.57;;;13.70;63.20;;;13.65;61.27;98400.81;5060929;28;20452;-71
2022/08/08 04:02:58;;;;;;;2.47;2.30;;;13.60;63.50;;;13.95;60.85;98434.53;5028185;28;20957;-71
2022/08/08 04:05:27;;;;;;;3.40;2.50;;;13.70;64.00;;;14.13;61.15;98439.94;5027776;28;20513;-70
2022/08/08 04:07:55;;;;;;;2.53;2.33;;;13.80;64.30;;;14.06;60.94;98439.19;5022871;28;20560;-71
2022/08/08 04:10:25;;;;;;;2.70;2.50;;;13.90;63.90;;;14.13;60.29;98448.09;5026646;28;20462;-72
2022/08/08 04:12:52;;;;;;;2.60;2.40;;;13.90;63.40;;;14.32;60.29;98445.34;5025328;28;20466;-71
2022/08/08 04:15:20;;;;;;;2.17;1.97;;;14.10;63.80;;;14.49;60.09;98453.69;5028659;28;20633;-71
2022/08/08 04:17:47;;;;;;;3.13;2.57;;;14.20;63.90;;;14.91;57.99;98452.09;5042143;28;20454;-70
2022/08/08 04:20:14;;;;;;;2.60;2.40;;;14.60;62.90;;;14.93;58.42;98458.94;5043246;28;20482;-72
2022/08/08 04:22:42;;;;;;;3.53;2.33;;;14.70;62.30;;;14.78;58.21;98463.97;5022060;28;20534;-69
2022/08/08 04:25:09;;;;;;;2.63;2.40;;;14.60;62.10;;;15.00;58.14;98462.38;5027438;28;20469;-69
2022/08/08 04:27:39;;;;;;;3.03;2.73;;;14.70;62.50;;;14.85;58.32;98462.00;5030137;28;20466;-70
2022/08/08 04:30:08;;;;;;;2.20;2.10;;;14.60;61.90;;;14.65;58.77;98465.81;5042884;28;20547;-71
2022/08/08 04:32:36;;;;;;;4.73;3.13;;;14.60;61.70;;;15.02;58.59;98464.88;5039653;28;20464;-71
2022/08/08 04:35:03;;;;;;;2.37;2.20;;;14.80;62.10;;;15.96;55.64;98466.00;5019575;28;20477;-72
2022/08/08 04:37:31;;;;;;;2.63;2.43;;;15.60;61.00;;;16.91;52.75;98469.44;5028610;28;20591;-71
2022/08/08 04:39:58;;;;;;;4.40;2.20;;;16.60;59.40;;;16.95;52.19;98474.16;5027285;28;20853;-70
2022/08/08 04:42:25;;;;;;;2.70;2.50;;;17.20;57.80;;;17.53;50.26;98471.31;5042729;28;20999;-70
2022/08/08 04:44:56;;;;;;;4.97;3.30;;;17.80;56.70;;;17.75;49.74;98466.97;5025096;28;20939;-70
2022/08/08 04:47:23;;;;;;;2.73;2.13;;;18.10;55.80;;;18.35;48.62;98468.03;5023963;28;20462;-71
2022/08/08 04:49:51;;;;;;;2.40;2.07;;;18.60;55.50;;;18.04;48.80;98475.84;5022327;28;21031;-71
2022/08/08 04:52:18;;;;;;;2.67;2.47;;;18.70;54.80;;;17.97;48.83;98475.19;5024953;28;21040;-71
2022/08/08 04:54:45;;;;;;;2.47;2.20;;;18.70;54.40;;;17.71;49.02;98477.56;5022234;28;20528;-70
2022/08/08 04:57:13;;;;;;;3.10;2.50;;;18.60;54.00;;;18.80;47.55;98473.44;5030318;28;20454;-70
2022/08/08 04:59:40;;;;;;;2.90;2.47;;;18.90;54.40;;;19.28;45.71;98478.28;5024910;28;20469;-70
2022/08/08 05:02:09;;;;;;;2.00;1.90;;;19.40;53.50;;;19.04;45.92;98484.91;5024943;28;21115;-71
2022/08/08 05:04:36;;;;;;;3.27;2.67;;;19.60;52.90;;;18.66;46.97;98476.59;5026263;28;20454;-71
2022/08/08 05:07:04;;;;;;;5.43;2.20;;;19.40;52.80;;;18.74;46.78;98488.16;5030020;28;20516;-72
2022/08/08 05:09:32;;;;;;;2.80;2.33;;;19.40;52.80;;;19.40;45.64;98479.72;5040244;28;20514;-71
2022/08/08 05:11:59;;;;;;;2.30;2.10;;;19.70;52.70;;;18.97;46.00;98496.06;5038845;28;20466;-70
2022/08/08 05:14:26;;;;;;;5.97;2.80;;;19.60;52.00;;;19.11;45.79;98490.19;5043153;28;20946;-73
2022/08/08 05:16:54;;;;;;;2.93;2.50;;;19.80;52.10;;;19.33;45.89;98497.47;5025261;28;21342;-71
2022/08/08 05:19:22;;;;;;;2.40;2.20;;;20.00;52.00;;;20.04;44.30;98496.34;5024553;28;20470;-73
2022/08/08 05:21:54;;;;;;;3.23;2.10;;;20.40;51.90;;;19.90;43.77;98500.63;5045382;28;20485;-72
2022/08/08 05:24:22;;;;;;;1.93;1.83;;;20.60;51.00;;;19.72;44.38;98493.69;5042302;28;20905;-72
2022/08/08 05:26:49;;;;;;;4.40;2.00;;;20.60;50.90;;;19.67;44.21;98497.22;5028589;28;20533;-72
2022/08/08 05:29:16;;;;;;;3.97;2.37;;;20.50;50.80;;;19.94;44.04;98507.25;5026089;28;20470;-71
2022/08/08 05:31:43;;;;;;;4.77;2.10;;;20.60;50.80;;;20.02;43.50;98503.22;5027921;28;20481;-71
2022/08/08 05:34:24;;;;;;;2.03;1.93;;;20.80;50.50;;;20.56;42.82;98504.81;5022913;28;20454;-72
2022/08/08 05:36:54;;;;;;;2.07;1.97;;;21.10;50.50;;;20.56;42.56;98496.59;5020988;28;20447;-71
2022/08/08 05:39:22;;;;;;;2.40;2.20;;;21.20;50.00;;;20.27;42.98;98499.78;5036918;28;20465;-71
2022/08/08 05:41:52;;;;;;;2.80;2.10;;;21.00;50.10;;;20.20;43.27;98504.66;5041973;28;20455;-71
2022/08/08 05:44:24;;;;;;;1.97;1.87;;;20.80;50.00;;;20.14;43.13;98511.22;5021232;28;20470;-71
2022/08/08 05:46:53;;;;;;;2.23;2.03;;;20.90;49.80;;;20.43;42.43;98508.88;5041206;28;20455;-72
2022/08/08 05:49:22;;;;;;;1.70;1.60;;;21.10;49.70;;;20.08;42.96;98516.66;5037210;28;20513;-72
2022/08/08 05:51:50;;;;;;;2.20;2.00;;;21.00;49.40;;;19.72;43.92;98519.16;5027368;28;20987;-71
2022/08/08 05:54:17;;;;;;;7.87;2.53;;;20.60;49.90;;;20.07;43.58;98517.75;5030160;28;20463;-72
2022/08/08 05:56:46;;;;;;;2.07;1.93;;;20.60;50.00;;;19.52;44.05;98522.56;5020650;28;20490;-71
2022/08/08 05:59:18;;;;;;;4.90;1.90;;;20.40;49.80;;;20.41;42.93;98513.81;5035394;28;20446;-71
2022/08/08 06:01:54;;;;;;;1.80;1.60;;;20.60;50.30;;;20.97;41.73;98520.59;5022498;28;20463;-73
2022/08/08 06:04:26;;;;;;;2.10;1.83;;;21.40;49.90;;;21.68;40.35;98520.09;5019151;28;20557;-72
2022/08/08 06:06:55;;;;;;;2.20;2.00;;;22.10;49.30;;;22.12;39.23;98513.97;5027261;28;20445;-71
2022/08/08 06:09:27;;;;;;;2.87;2.40;;;22.70;48.40;;;21.17;40.96;98517.06;5027589;28;20462;-73
2022/08/08 06:12:00;;;;;;;1.70;1.60;;;22.10;48.60;;;19.88;44.40;98516.53;5033005;28;20466;-73
2022/08/08 06:14:29;;;;;;;2.00;1.90;;;20.90;49.70;;;18.75;46.05;98517.19;5039735;28;20471;-72
2022/08/08 06:17:00;;;;;;;1.77;1.67;;;19.60;50.50;;;18.34;47.80;98518.34;5018329;28;21241;-73
2022/08/08 06:19:29;;;;;;;2.10;1.90;;;18.80;51.40;;;18.25;47.94;98515.22;5025060;28;20534;-70
2022/08/08 06:21:56;;;;;;;2.20;2.00;;;18.40;52.10;;;18.07;47.91;98478.06;5020526;28;20911;-70
2022/08/08 06:24:23;;;;;;;1.93;1.83;;;18.40;52.50;;;18.28;47.89;98527.59;5020948;28;20725;-71
2022/08/08 06:26:57;;;;;;;6.40;5.07;;;18.40;52.60;;;18.21;47.64;98516.00;5022492;28;20464;-67
2022/08/08 06:29:35;;;;;;;2.27;2.07;;;18.30;52.50;;;18.20;47.98;98526.13;5021838;28;20479;-67
2022/08/08 06:32:04;;;;;;;2.03;1.93;;;18.10;52.80;;;18.23;48.01;98536.53;5016385;28;20581;-69
2022/08/08 06:34:38;;;;;;;1.87;1.70;;;18.10;52.80;;;18.39;48.52;98534.81;5016227;28;20455;-69
2022/08/08 06:37:13;;;;;;;2.40;2.20;;;18.20;53.50;;;18.55;47.93;98537.75;5020300;28;20657;-69
2022/08/08 06:39:44;;;;;;;2.07;1.63;;;18.40;53.40;;;18.61;47.53;98536.72;5035694;28;20461;-70
2022/08/08 06:42:13;;;;;;;1.77;1.67;;;18.60;53.20;;;18.65;47.12;98521.44;5024262;28;20602;-69
2022/08/08 06:44:41;;;;;;;2.20;2.00;;;18.60;52.80;;;18.79;46.58;98521.88;5018225;28;20494;-67
2022/08/08 06:47:09;;;;;;;2.03;1.80;;;18.80;52.50;;;18.73;46.95;98533.00;5015614;28;20532;-67
2022/08/08 06:49:40;;;;;;;2.93;2.00;;;18.70;52.50;;;18.78;46.88;98525.69;5019638;28;20481;-67
2022/08/08 06:52:08;;;;;;;2.10;2.00;;;18.80;52.60;;;18.91;46.82;98508.06;5023312;28;20450;-79
2022/08/08 06:54:37;;;;;;;1.93;1.70;;;19.00;53.00;;;19.14;46.58;98528.00;5032504;28;20474;-67
2022/08/08 06:57:05;;;;;;;8.80;6.53;;;19.00;52.80;;;19.13;46.31;98526.34;5018770;28;20486;-69
2022/08/08 06:59:35;;;;;;;4.63;2.10;;;19.10;52.60;;;19.45;45.75;98530.19;5034500;28;20454;-68
2022/08/08 07:02:04;;;;;;;1.53;1.43;;;19.20;52.50;;;19.61;45.14;98536.59;5021598;28;20457;-68
2022/08/08 07:04:45;;;;;;;2.20;1.70;;;19.30;52.20;;;19.79;45.35;98538.97;5034055;28;20931;-67
2022/08/08 07:07:19;;;;;;;2.83;2.00;;;19.50;52.60;;;19.78;45.08;98539.22;5021748;28;21610;-66
2022/08/08 07:10:03;;;;;;;1.73;1.63;;;19.60;52.10;;;19.74;44.45;98538.09;5034241;28;20458;-68
2022/08/08 07:12:40;;;;;;;1.83;1.73;;;19.70;51.70;;;19.58;44.29;98504.25;5016049;28;20454;-68
2022/08/08 07:15:10;;;;;;;3.67;1.73;;;19.70;51.30;;;19.72;44.34;98499.16;5021504;28;20474;-70
2022/08/08 07:17:43;;;;;;;4.03;1.73;;;19.80;51.70;;;20.13;44.34;98537.00;5018129;28;20460;-68
2022/08/08 07:20:19;;;;;;;2.53;1.93;;;19.90;51.80;;;20.02;44.71;98545.16;5019512;28;20465;-67
2022/08/08 07:23:00;;;;;;;1.90;1.70;;;20.00;51.90;;;20.16;44.76;98520.81;5024926;28;20470;-68
2022/08/08 07:25:30;;;;;;;2.07;1.70;;;20.10;52.40;;;20.46;43.71;98534.97;5022115;28;20454;-68
2022/08/08 07:28:05;;;;;;;3.00;1.90;;;20.20;51.60;;;20.48;43.27;98543.75;5044990;28;20459;-68
2022/08/08 07:30:32;;;;;;;3.47;2.00;;;20.30;51.30;;;20.48;43.07;98538.25;5022458;28;20453;-67
2022/08/08 07:33:01;;;;;;;1.80;1.70;;;20.30;51.00;;;20.58;43.04;98541.06;5021924;28;21024;-73
2022/08/08 07:35:30;;;;;;;2.20;1.70;;;20.40;51.20;;;20.72;43.58;98541.38;5020002;28;20502;-67
2022/08/08 07:37:58;;;;;;;1.80;1.50;;;20.50;51.30;;;20.86;42.13;98540.88;5022030;28;21041;-66
2022/08/08 07:40:27;;;;;;;6.93;2.50;;;20.70;50.70;;;20.79;42.29;98543.84;5022187;28;20470;-66
2022/08/08 07:42:55;;;;;;;4.80;1.70;;;20.80;50.40;;;20.95;42.19;98548.31;5041092;28;20483;-68
2022/08/08 07:45:24;;;;;;;2.70;1.53;;;20.80;50.70;;;21.13;42.01;98551.66;5026061;28;20458;-68
2022/08/08 07:47:53;;;;;;;3.13;1.87;;;21.00;50.80;;;21.39;41.57;98543.44;5022473;28;20455;-68
2022/08/08 07:50:21;;;;;;;1.37;1.27;;;21.10;50.60;;;21.47;41.25;98548.41;5025636;28;20590;-67
2022/08/08 07:52:56;;;;;;;2.70;1.57;;;21.30;50.40;;;21.47;40.65;98542.91;5024700;28;20462;-67
2022/08/08 07:55:26;;;;;;;4.60;2.00;;;21.30;49.80;;;21.61;40.50;98548.66;5052605;28;21014;-67
2022/08/08 07:58:03;;;;;;;2.50;1.70;;;21.40;49.80;;;21.71;40.22;98542.38;5024776;28;20473;-69
2022/08/08 08:00:40;;;;;;;2.47;1.40;;;21.60;49.70;;;21.65;39.20;98560.78;5027014;28;20513;-68
2022/08/08 08:03:10;;;;;;;3.00;1.47;;;21.70;48.80;;;21.64;39.55;98544.56;5037640;28;21085;-67
2022/08/08 08:05:42;;;;;;;3.17;1.70;;;21.60;49.20;;;21.66;39.50;98553.38;5024673;28;20553;-67
2022/08/08 08:08:19;;;;;;;1.80;1.70;;;21.60;48.70;;;21.85;39.49;98559.16;5036621;28;20459;-67
2022/08/08 08:10:50;;;;;;;1.83;1.70;;;21.70;49.10;;;22.23;38.91;98547.78;5026481;28;20465;-68
2022/08/08 08:13:26;;;;;;;2.00;1.60;;;22.00;49.10;;;22.11;38.53;98555.53;5026647;28;20472;-68
2022/08/08 08:16:02;;;;;;;2.93;1.63;;;22.00;48.20;;;22.17;37.82;98554.41;5028008;28;20481;-73
2022/08/08 08:18:34;;;;;;;3.60;2.33;;;22.10;47.70;;;21.96;38.01;98559.94;5052865;28;21003;-74
2022/08/08 08:21:03;;;;;;;2.63;1.60;;;22.00;47.60;;;22.32;37.72;98551.59;5030605;28;20863;-75
2022/08/08 08:23:32;;;;;;;1.60;1.50;;;22.10;47.80;;;22.48;37.28;98557.09;5041514;28;20459;-76
2022/08/08 08:25:59;;;;;;;3.07;1.40;;;22.30;47.50;;;22.52;37.16;98555.44;5025306;28;20961;-75
2022/08/08 08:28:27;;;;;;;2.03;1.83;;;22.40;47.30;;;22.54;36.67;98555.97;5029760;28;20463;-70
2022/08/08 08:30:57;;;;;;;1.47;1.37;;;22.40;46.90;;;22.50;36.19;98563.97;5025584;28;20459;-69
2022/08/08 08:33:25;;;;;;;1.60;1.50;;;22.40;46.30;;;22.48;36.17;98548.81;5026438;28;20460;-68
2022/08/08 08:35:52;;;;;;;2.10;1.70;;;22.40;46.30;;;22.50;36.02;98513.56;5032015;28;20562;-69
2022/08/08 08:38:19;;;;;;;1.97;1.57;;;22.60;46.50;;;22.73;34.91;98556.16;5027855;28;20957;-69
2022/08/08 08:40:49;;;;;;;2.50;1.40;;;22.60;45.60;;;22.67;35.27;98551.78;5027312;28;20470;-68
2022/08/08 08:43:19;;;;;;;2.47;1.37;;;22.60;45.70;;;22.88;35.11;98549.75;5026575;28;20492;-69
2022/08/08 08:45:48;;;;;;;1.33;1.23;;;22.60;45.60;;;23.04;34.82;98553.22;5025629;28;20464;-74
2022/08/08 08:48:18;;;;;;;1.30;1.20;;;22.80;45.40;;;23.16;34.75;98550.13;5043575;28;20472;-69
2022/08/08 08:50:50;;;;;;;1.43;1.33;;;23.00;45.50;;;23.23;34.81;98546.22;5028324;28;20478;-67
2022/08/08 08:53:17;;;;;;;4.07;1.10;;;23.00;45.80;;;23.26;34.27;98548.41;5037255;28;20497;-68
2022/08/08 08:55:48;;;;;;;2.10;1.10;;;23.10;45.10;;;23.44;34.23;98547.78;5030863;28;20575;-69
2022/08/08 08:58:27;;;;;;;2.67;1.47;;;23.20;45.20;;;23.71;33.79;98540.91;5027794;28;20464;-76
2022/08/08 09:00:55;;;;;;;1.60;1.50;;;23.40;45.20;;;23.65;33.94;98542.06;5027503;28;20477;-74
2022/08/08 09:03:24;;;;;;;2.77;1.53;;;23.50;45.20;;;23.58;34.27;98549.84;5033542;28;20457;-73
2022/08/08 09:05:53;;;;;;;1.40;1.30;;;23.50;45.40;;;23.87;33.36;98549.03;5062382;28;20457;-75
2022/08/08 09:08:26;;;;;;;2.20;1.60;;;23.60;45.10;;;23.94;33.06;98544.00;5043142;28;21503;-73
2022/08/08 09:10:55;;;;;;;1.37;1.20;;;23.70;44.60;;;24.11;32.11;98546.38;5043350;28;20843;-73
2022/08/08 09:13:23;;;;;;;2.07;0.90;;;23.90;44.20;;;23.97;32.09;98543.44;5029590;28;20944;-75
2022/08/08 09:15:50;;;;;;;3.17;1.37;;;23.90;43.80;;;24.19;31.25;98545.72;5031604;28;20482;-77
2022/08/08 09:18:18;;;;;;;1.93;1.53;;;23.90;43.40;;;24.21;31.20;98550.13;5016983;28;20452;-69
2022/08/08 09:20:46;;;;;;;1.83;1.60;;;24.10;43.20;;;24.32;30.60;98546.13;5042399;28;20976;-68
2022/08/08 09:23:14;;;;;;;1.20;1.10;;;24.10;42.80;;;24.31;30.30;98553.56;5018059;28;20449;-74
2022/08/08 09:25:50;;;;;;;2.03;1.30;;;24.10;42.30;;;24.14;30.09;98554.06;5022005;28;20457;-74
2022/08/08 09:28:19;;;;;;;3.53;1.50;;;24.10;41.90;;;23.90;29.72;98551.25;5022547;28;20453;-74
2022/08/08 09:30:51;;;;;;;2.77;1.77;;;23.90;41.50;;;23.99;30.01;98556.94;5032102;28;20967;-72
2022/08/08 09:33:21;;;;;;;1.50;1.10;;;23.80;41.80;;;24.18;30.36;98554.28;5024529;28;20469;-70
2022/08/08 09:35:50;;;;;;;1.37;1.27;;;23.80;42.10;;;24.51;29.80;98550.88;5024509;28;20999;-68
2022/08/08 09:38:31;;;;;;;1.20;1.10;;;24.10;42.00;;;24.48;29.02;98547.59;5024054;28;20944;-68
2022/08/08 09:41:05;;;;;;;1.23;1.13;;;24.20;41.50;;;24.50;30.07;98543.72;5037201;28;20729;-68
2022/08/08 09:43:49;;;;;;;1.50;1.40;;;24.20;41.90;;;24.37;29.79;98545.25;5024947;28;20471;-68
2022/08/08 09:46:17;;;;;;;1.20;1.10;;;24.20;41.60;;;24.45;29.66;98542.66;5024085;28;20480;-68
2022/08/08 09:48:47;;;;;;;1.50;1.30;;;24.20;41.70;;;24.65;30.19;98551.00;5025206;28;20463;-68
2022/08/08 09:51:15;;;;;;;1.40;1.30;;;24.30;42.10;;;24.77;30.09;98542.31;5033513;28;20465;-68
2022/08/08 09:53:50;;;;;;;2.07;1.20;;;24.40;42.20;;;24.35;30.55;98514.38;5020870;28;20491;-68
2022/08/08 09:56:18;;;;;;;3.30;1.50;;;24.40;42.40;;;24.55;30.50;98524.31;5022321;28;20472;-67
2022/08/08 09:58:54;;;;;;;1.70;1.60;;;24.30;42.50;;;24.85;30.86;98530.56;5022120;28;20462;-68
2022/08/08 10:01:22;;;;;;;2.43;1.63;;;24.40;43.00;;;24.88;30.46;98527.25;5024016;28;20540;-68
2022/08/08 10:03:51;;;;;;;1.53;1.43;;;24.50;42.60;;;24.58;30.11;98530.06;5043401;28;20470;-68
2022/08/08 10:06:20;;;;;;;1.63;1.10;;;24.40;42.00;;;24.84;29.89;98535.28;5018418;28;20475;-68
2022/08/08 10:08:49;;;;;;;3.00;1.70;;;24.40;41.80;;;24.69;30.02;98519.69;5021296;28;20847;-68
2022/08/08 10:11:18;;;;;;;2.40;1.60;;;24.40;41.80;;;24.78;29.94;98525.41;5039025;28;20460;-80
2022/08/08 10:13:55;;;;;;;1.50;1.00;;;24.50;42.10;;;24.74;30.26;98521.56;5041619;28;20528;-78
2022/08/08 10:16:23;;;;;;;1.67;1.20;;;24.60;42.00;;;24.83;30.47;98541.09;5028849;28;20476;-77
2022/08/08 10:19:03;;;;;;;1.70;1.37;;;24.60;42.20;;;24.81;29.62;98524.00;5038255;28;20457;-75
2022/08/08 10:21:35;;;;;;;1.80;1.70;;;24.60;41.90;;;25.02;29.72;98521.78;5047700;28;20973;-76
2022/08/08 10:24:08;;;;;;;1.57;1.47;;;24.60;42.20;;;25.04;29.87;98514.00;5047481;28;20880;-76
2022/08/08 10:26:42;;;;;;;1.60;1.33;;;24.70;42.30;;;24.78;29.95;98517.13;5026473;28;20549;-75
2022/08/08 10:29:13;;;;;;;1.87;1.47;;;24.60;41.80;;;24.81;29.82;98519.31;5025698;28;20457;-76
2022/08/08 10:34:30;;;;;;;1.53;1.37;;;24.60;42.00;;;25.21;29.84;98523.69;5026937;28;21144;-76
2022/08/08 10:36:58;;;;;;;2.33;1.23;;;24.80;42.30;;;25.09;29.54;98508.38;5029798;28;20473;-75
2022/08/08 10:39:29;;;;;;;1.93;1.07;;;24.90;42.00;;;25.24;29.64;98506.50;5034038;28;20979;-76
2022/08/08 10:41:58;;;;;;;1.50;1.40;;;25.00;42.00;;;25.15;29.97;98509.13;5025511;28;20465;-75
2022/08/08 10:44:35;;;;;;;1.27;1.20;;;24.80;41.90;;;25.52;29.56;98512.16;5038131;28;20461;-75
2022/08/08 10:47:11;;;;;;;1.67;1.20;;;25.10;42.30;;;25.74;29.39;98509.59;5024992;28;20965;-74
2022/08/08 10:49:40;;;;;;;1.37;1.27;;;25.30;41.90;;;25.56;29.25;98510.47;5022001;28;20482;-74
2022/08/08 10:52:08;;;;;;;2.43;1.63;;;25.30;41.70;;;25.55;29.37;98517.09;5026058;28;20450;-77
2022/08/08 10:54:38;;;;;;;2.40;1.30;;;25.30;41.80;;;25.54;29.75;98505.22;5032092;28;20461;-74
2022/08/08 10:57:07;;;;;;;1.63;1.53;;;25.20;41.80;;;25.81;28.91;98497.28;5016152;28;20841;-75
2022/08/08 10:59:35;;;;;;;2.53;1.40;;;25.40;41.90;;;25.38;29.93;98496.31;5035442;28;20459;-74
2022/08/08 11:02:02;;;;;;;1.40;1.30;;;25.20;41.60;;;25.80;29.67;98502.00;5027002;28;20460;-74
2022/08/08 11:04:30;;;;;;;6.43;1.83;;;25.40;42.00;;;25.48;29.11;98484.31;5023912;28;20468;-75
2022/08/08 11:07:00;;;;;;;2.47;1.90;;;25.40;41.60;;;25.68;29.48;98488.66;5026416;28;20473;-74